sensor_id;sensor_type;location;lat;lon;timestamp;P1;durP1;ratioP1;P2;durP2;ratioP2
65636;SDS011;52327;42.622;23.316;2023-05-10T00:01:17;3.15;;;1.70;;
65636;SDS011;52327;42.622;23.316;2023-05-10T00:03:48;3.78;;;1.90;;
65636;SDS011;52327;42.622;23.316;2023-05-10T00:06:21;4.28;;;2.60;;
65636;SDS011;52327;42.622;23.316;2023-05-10T00:08:52;5.28;;;2.58;;
65636;SDS011;52327;42.622;23.316;2023-05-10T00:11:31;3.65;;;2.25;;
65636;SDS011;52327;42.622;23.316;2023-05-10T00:13:56;3.40;;;1.98;;
65636;SDS011;52327;42.622;23.316;2023-05-10T00:16:27;3.65;;;2.40;;
65636;SDS011;52327;42.622;23.316;2023-05-10T00:19:03;3.95;;;2.40;;
65636;SDS011;52327;42.622;23.316;2023-05-10T00:21:59;3.60;;;2.00;;
65636;SDS011;52327;42.622;23.316;2023-05-10T00:24:27;4.22;;;2.47;;
65636;SDS011;52327;42.622;23.316;2023-05-10T00:29:20;3.53;;;2.25;;
65636;SDS011;52327;42.622;23.316;2023-05-10T00:31:46;3.90;;;2.47;;
65636;SDS011;52327;42.622;23.316;2023-05-10T00:34:11;2.90;;;2.25;;
65636;SDS011;52327;42.622;23.316;2023-05-10T00:36:39;3.78;;;2.13;;
65636;SDS011;52327;42.622;23.316;2023-05-10T00:39:08;3.95;;;2.20;;
65636;SDS011;52327;42.622;23.316;2023-05-10T00:41:33;2.60;;;1.70;;
65636;SDS011;52327;42.622;23.316;2023-05-10T00:43:59;2.65;;;1.85;;
65636;SDS011;52327;42.622;23.316;2023-05-10T00:46:25;3.10;;;2.17;;
65636;SDS011;52327;42.622;23.316;2023-05-10T00:48:52;5.07;;;2.22;;
65636;SDS011;52327;42.622;23.316;2023-05-10T00:51:25;4.63;;;2.63;;
65636;SDS011;52327;42.622;23.316;2023-05-10T00:53:50;3.17;;;2.08;;
65636;SDS011;52327;42.622;23.316;2023-05-10T00:56:16;4.05;;;2.40;;
65636;SDS011;52327;42.622;23.316;2023-05-10T00:58:42;3.67;;;2.35;;
65636;SDS011;52327;42.622;23.316;2023-05-10T01:01:10;2.80;;;1.90;;
65636;SDS011;52327;42.622;23.316;2023-05-10T01:03:45;4.25;;;2.13;;
65636;SDS011;52327;42.622;23.316;2023-05-10T01:06:12;2.90;;;1.80;;
65636;SDS011;52327;42.622;23.316;2023-05-10T01:08:38;5.85;;;3.20;;
65636;SDS011;52327;42.622;23.316;2023-05-10T01:11:04;3.95;;;2.05;;
65636;SDS011;52327;42.622;23.316;2023-05-10T01:13:33;3.70;;;2.17;;
65636;SDS011;52327;42.622;23.316;2023-05-10T01:16:08;4.75;;;2.35;;
65636;SDS011;52327;42.622;23.316;2023-05-10T01:18:35;3.30;;;1.90;;
65636;SDS011;52327;42.622;23.316;2023-05-10T01:21:17;3.42;;;2.05;;
65636;SDS011;52327;42.622;23.316;2023-05-10T01:24:14;3.17;;;1.90;;
65636;SDS011;52327;42.622;23.316;2023-05-10T01:27:01;2.85;;;2.05;;
65636;SDS011;52327;42.622;23.316;2023-05-10T01:32:36;3.17;;;1.92;;
65636;SDS011;52327;42.622;23.316;2023-05-10T01:35:18;3.20;;;1.75;;
65636;SDS011;52327;42.622;23.316;2023-05-10T01:37:55;4.60;;;2.45;;
65636;SDS011;52327;42.622;23.316;2023-05-10T01:42:59;2.50;;;1.50;;
65636;SDS011;52327;42.622;23.316;2023-05-10T01:46:07;2.88;;;1.60;;
65636;SDS011;52327;42.622;23.316;2023-05-10T01:48:37;3.20;;;1.88;;
65636;SDS011;52327;42.622;23.316;2023-05-10T01:51:16;2.67;;;1.67;;
65636;SDS011;52327;42.622;23.316;2023-05-10T01:53:46;3.25;;;1.58;;
65636;SDS011;52327;42.622;23.316;2023-05-10T01:56:21;3.45;;;2.00;;
65636;SDS011;52327;42.622;23.316;2023-05-10T01:58:53;1.90;;;1.23;;
65636;SDS011;52327;42.622;23.316;2023-05-10T02:01:25;3.03;;;1.38;;
65636;SDS011;52327;42.622;23.316;2023-05-10T02:03:52;2.42;;;1.67;;
65636;SDS011;52327;42.622;23.316;2023-05-10T02:06:32;3.28;;;1.75;;
65636;SDS011;52327;42.622;23.316;2023-05-10T02:09:08;2.45;;;1.50;;
65636;SDS011;52327;42.622;23.316;2023-05-10T02:14:35;1.65;;;1.23;;
65636;SDS011;52327;42.622;23.316;2023-05-10T02:20:45;1.48;;;0.95;;
65636;SDS011;52327;42.622;23.316;2023-05-10T02:23:12;2.05;;;1.35;;
65636;SDS011;52327;42.622;23.316;2023-05-10T02:26:28;1.88;;;1.33;;
65636;SDS011;52327;42.622;23.316;2023-05-10T02:28:58;2.50;;;1.45;;
65636;SDS011;52327;42.622;23.316;2023-05-10T02:31:56;2.08;;;1.60;;
65636;SDS011;52327;42.622;23.316;2023-05-10T02:34:26;1.75;;;1.30;;
65636;SDS011;52327;42.622;23.316;2023-05-10T02:36:53;1.08;;;0.95;;
65636;SDS011;52327;42.622;23.316;2023-05-10T02:39:20;1.35;;;1.13;;
65636;SDS011;52327;42.622;23.316;2023-05-10T02:41:46;1.42;;;1.20;;
65636;SDS011;52327;42.622;23.316;2023-05-10T02:44:22;1.40;;;1.00;;
65636;SDS011;52327;42.622;23.316;2023-05-10T02:46:49;1.25;;;0.90;;
65636;SDS011;52327;42.622;23.316;2023-05-10T02:49:15;1.73;;;1.35;;
65636;SDS011;52327;42.622;23.316;2023-05-10T02:51:41;1.55;;;0.85;;
65636;SDS011;52327;42.622;23.316;2023-05-10T02:54:20;1.80;;;1.27;;
65636;SDS011;52327;42.622;23.316;2023-05-10T02:56:53;2.22;;;1.38;;
65636;SDS011;52327;42.622;23.316;2023-05-10T02:59:22;1.80;;;1.10;;
65636;SDS011;52327;42.622;23.316;2023-05-10T03:01:48;2.20;;;1.50;;
65636;SDS011;52327;42.622;23.316;2023-05-10T03:04:13;2.35;;;1.33;;
65636;SDS011;52327;42.622;23.316;2023-05-10T03:06:39;1.38;;;1.02;;
65636;SDS011;52327;42.622;23.316;2023-05-10T03:09:05;2.42;;;1.30;;
65636;SDS011;52327;42.622;23.316;2023-05-10T03:19:48;1.95;;;1.20;;
65636;SDS011;52327;42.622;23.316;2023-05-10T03:22:32;1.30;;;1.15;;
65636;SDS011;52327;42.622;23.316;2023-05-10T03:25:03;1.97;;;1.10;;
65636;SDS011;52327;42.622;23.316;2023-05-10T03:27:31;4.95;;;1.17;;
65636;SDS011;52327;42.622;23.316;2023-05-10T03:29:57;1.25;;;0.80;;
65636;SDS011;52327;42.622;23.316;2023-05-10T03:32:23;3.63;;;1.02;;
65636;SDS011;52327;42.622;23.316;2023-05-10T03:34:48;2.40;;;1.38;;
65636;SDS011;52327;42.622;23.316;2023-05-10T03:37:14;2.97;;;1.98;;
65636;SDS011;52327;42.622;23.316;2023-05-10T03:39:39;3.70;;;1.55;;
65636;SDS011;52327;42.622;23.316;2023-05-10T03:42:05;3.25;;;2.00;;
65636;SDS011;52327;42.622;23.316;2023-05-10T03:44:30;2.75;;;1.95;;
65636;SDS011;52327;42.622;23.316;2023-05-10T03:46:58;4.63;;;2.28;;
65636;SDS011;52327;42.622;23.316;2023-05-10T03:49:23;2.25;;;1.42;;
65636;SDS011;52327;42.622;23.316;2023-05-10T03:51:48;2.00;;;1.35;;
65636;SDS011;52327;42.622;23.316;2023-05-10T03:54:14;2.85;;;2.05;;
65636;SDS011;52327;42.622;23.316;2023-05-10T03:56:39;3.72;;;2.17;;
65636;SDS011;52327;42.622;23.316;2023-05-10T03:59:05;4.45;;;2.58;;
65636;SDS011;52327;42.622;23.316;2023-05-10T04:01:32;3.17;;;2.08;;
65636;SDS011;52327;42.622;23.316;2023-05-10T04:03:58;3.35;;;2.08;;
65636;SDS011;52327;42.622;23.316;2023-05-10T04:06:24;6.47;;;2.58;;
65636;SDS011;52327;42.622;23.316;2023-05-10T04:08:49;4.85;;;3.10;;
65636;SDS011;52327;42.622;23.316;2023-05-10T04:11:15;3.35;;;2.38;;
65636;SDS011;52327;42.622;23.316;2023-05-10T04:13:40;3.53;;;2.35;;
65636;SDS011;52327;42.622;23.316;2023-05-10T04:16:06;3.60;;;2.08;;
65636;SDS011;52327;42.622;23.316;2023-05-10T04:18:31;2.65;;;2.03;;
65636;SDS011;52327;42.622;23.316;2023-05-10T04:20:57;3.80;;;2.25;;
65636;SDS011;52327;42.622;23.316;2023-05-10T04:23:22;2.42;;;1.83;;
65636;SDS011;52327;42.622;23.316;2023-05-10T04:26:00;3.88;;;2.40;;
65636;SDS011;52327;42.622;23.316;2023-05-10T04:28:26;4.00;;;2.53;;
65636;SDS011;52327;42.622;23.316;2023-05-10T04:30:52;5.05;;;2.88;;
65636;SDS011;52327;42.622;23.316;2023-05-10T04:33:54;4.10;;;2.72;;
65636;SDS011;52327;42.622;23.316;2023-05-10T04:36:23;4.10;;;2.92;;
65636;SDS011;52327;42.622;23.316;2023-05-10T04:38:51;5.05;;;2.88;;
65636;SDS011;52327;42.622;23.316;2023-05-10T04:41:20;3.67;;;2.58;;
65636;SDS011;52327;42.622;23.316;2023-05-10T04:43:49;4.35;;;2.63;;
65636;SDS011;52327;42.622;23.316;2023-05-10T04:46:15;4.95;;;2.08;;
65636;SDS011;52327;42.622;23.316;2023-05-10T04:48:41;3.85;;;2.28;;
65636;SDS011;52327;42.622;23.316;2023-05-10T04:51:09;3.45;;;2.15;;
65636;SDS011;52327;42.622;23.316;2023-05-10T04:53:37;4.47;;;2.53;;
65636;SDS011;52327;42.622;23.316;2023-05-10T04:56:02;3.67;;;2.13;;
65636;SDS011;52327;42.622;23.316;2023-05-10T04:58:28;2.70;;;2.10;;
65636;SDS011;52327;42.622;23.316;2023-05-10T05:00:53;3.90;;;2.60;;
65636;SDS011;52327;42.622;23.316;2023-05-10T05:03:19;5.50;;;2.20;;
65636;SDS011;52327;42.622;23.316;2023-05-10T05:05:44;3.15;;;2.33;;
65636;SDS011;52327;42.622;23.316;2023-05-10T05:08:09;4.18;;;2.55;;
65636;SDS011;52327;42.622;23.316;2023-05-10T05:10:35;4.53;;;2.60;;
65636;SDS011;52327;42.622;23.316;2023-05-10T05:13:00;3.90;;;2.35;;
65636;SDS011;52327;42.622;23.316;2023-05-10T05:15:26;2.97;;;2.20;;
65636;SDS011;52327;42.622;23.316;2023-05-10T05:17:51;2.95;;;1.67;;
65636;SDS011;52327;42.622;23.316;2023-05-10T05:20:17;2.53;;;1.80;;
65636;SDS011;52327;42.622;23.316;2023-05-10T05:22:43;3.85;;;2.78;;
65636;SDS011;52327;42.622;23.316;2023-05-10T05:25:09;3.28;;;2.33;;
65636;SDS011;52327;42.622;23.316;2023-05-10T05:27:35;3.40;;;2.17;;
65636;SDS011;52327;42.622;23.316;2023-05-10T05:30:00;3.65;;;2.25;;
65636;SDS011;52327;42.622;23.316;2023-05-10T05:32:27;3.30;;;2.17;;
65636;SDS011;52327;42.622;23.316;2023-05-10T05:34:52;3.13;;;2.03;;
65636;SDS011;52327;42.622;23.316;2023-05-10T05:37:18;4.32;;;2.33;;
65636;SDS011;52327;42.622;23.316;2023-05-10T05:39:46;3.03;;;2.10;;
65636;SDS011;52327;42.622;23.316;2023-05-10T05:42:12;3.60;;;2.22;;
65636;SDS011;52327;42.622;23.316;2023-05-10T05:44:38;3.47;;;2.25;;
65636;SDS011;52327;42.622;23.316;2023-05-10T05:47:04;5.03;;;2.92;;
65636;SDS011;52327;42.622;23.316;2023-05-10T05:49:29;4.43;;;2.75;;
65636;SDS011;52327;42.622;23.316;2023-05-10T05:51:58;2.97;;;2.25;;
65636;SDS011;52327;42.622;23.316;2023-05-10T05:54:28;3.70;;;2.30;;
65636;SDS011;52327;42.622;23.316;2023-05-10T05:56:56;3.70;;;2.35;;
65636;SDS011;52327;42.622;23.316;2023-05-10T05:59:22;4.95;;;2.47;;
65636;SDS011;52327;42.622;23.316;2023-05-10T06:01:48;3.10;;;2.40;;
65636;SDS011;52327;42.622;23.316;2023-05-10T06:04:13;5.47;;;2.65;;
65636;SDS011;52327;42.622;23.316;2023-05-10T06:06:39;5.15;;;2.50;;
65636;SDS011;52327;42.622;23.316;2023-05-10T06:09:05;9.52;;;3.50;;
65636;SDS011;52327;42.622;23.316;2023-05-10T06:11:30;5.38;;;2.83;;
65636;SDS011;52327;42.622;23.316;2023-05-10T06:13:57;5.32;;;3.00;;
65636;SDS011;52327;42.622;23.316;2023-05-10T06:16:23;4.40;;;2.58;;
65636;SDS011;52327;42.622;23.316;2023-05-10T06:18:49;8.18;;;3.53;;
65636;SDS011;52327;42.622;23.316;2023-05-10T06:21:14;4.63;;;3.45;;
65636;SDS011;52327;42.622;23.316;2023-05-10T06:23:41;4.10;;;2.70;;
65636;SDS011;52327;42.622;23.316;2023-05-10T06:26:06;4.63;;;2.42;;
65636;SDS011;52327;42.622;23.316;2023-05-10T06:28:32;4.50;;;3.22;;
65636;SDS011;52327;42.622;23.316;2023-05-10T06:30:58;6.00;;;3.22;;
65636;SDS011;52327;42.622;23.316;2023-05-10T06:33:24;6.13;;;2.45;;
65636;SDS011;52327;42.622;23.316;2023-05-10T06:35:49;6.55;;;2.95;;
65636;SDS011;52327;42.622;23.316;2023-05-10T06:38:15;5.25;;;2.97;;
65636;SDS011;52327;42.622;23.316;2023-05-10T06:40:43;5.10;;;2.38;;
65636;SDS011;52327;42.622;23.316;2023-05-10T06:43:09;5.20;;;2.78;;
65636;SDS011;52327;42.622;23.316;2023-05-10T06:45:35;6.10;;;3.75;;
65636;SDS011;52327;42.622;23.316;2023-05-10T06:48:00;4.70;;;2.88;;
65636;SDS011;52327;42.622;23.316;2023-05-10T06:50:26;5.47;;;2.55;;
65636;SDS011;52327;42.622;23.316;2023-05-10T06:52:51;6.32;;;3.13;;
65636;SDS011;52327;42.622;23.316;2023-05-10T06:55:17;5.40;;;3.88;;
65636;SDS011;52327;42.622;23.316;2023-05-10T06:57:42;4.90;;;3.40;;
65636;SDS011;52327;42.622;23.316;2023-05-10T07:00:08;6.13;;;3.58;;
65636;SDS011;52327;42.622;23.316;2023-05-10T07:02:34;5.43;;;2.67;;
65636;SDS011;52327;42.622;23.316;2023-05-10T07:05:00;5.50;;;3.25;;
65636;SDS011;52327;42.622;23.316;2023-05-10T07:07:25;3.90;;;2.25;;
65636;SDS011;52327;42.622;23.316;2023-05-10T07:09:51;5.22;;;2.72;;
65636;SDS011;52327;42.622;23.316;2023-05-10T07:12:16;5.70;;;2.70;;
65636;SDS011;52327;42.622;23.316;2023-05-10T07:14:42;5.07;;;2.35;;
65636;SDS011;52327;42.622;23.316;2023-05-10T07:17:07;3.80;;;2.22;;
65636;SDS011;52327;42.622;23.316;2023-05-10T07:19:33;4.80;;;2.05;;
65636;SDS011;52327;42.622;23.316;2023-05-10T07:21:58;6.57;;;3.83;;
65636;SDS011;52327;42.622;23.316;2023-05-10T07:24:24;8.70;;;3.08;;
65636;SDS011;52327;42.622;23.316;2023-05-10T07:26:50;4.40;;;2.70;;
65636;SDS011;52327;42.622;23.316;2023-05-10T07:29:15;5.00;;;3.08;;
65636;SDS011;52327;42.622;23.316;2023-05-10T07:31:41;4.75;;;3.38;;
65636;SDS011;52327;42.622;23.316;2023-05-10T07:34:07;5.32;;;3.08;;
65636;SDS011;52327;42.622;23.316;2023-05-10T07:36:33;9.68;;;2.85;;
65636;SDS011;52327;42.622;23.316;2023-05-10T07:38:59;4.00;;;2.05;;
65636;SDS011;52327;42.622;23.316;2023-05-10T07:41:24;5.95;;;3.15;;
65636;SDS011;52327;42.622;23.316;2023-05-10T07:43:50;5.97;;;3.35;;
65636;SDS011;52327;42.622;23.316;2023-05-10T07:46:15;7.05;;;3.65;;
65636;SDS011;52327;42.622;23.316;2023-05-10T07:48:43;5.32;;;2.75;;
65636;SDS011;52327;42.622;23.316;2023-05-10T07:51:08;6.38;;;2.97;;
65636;SDS011;52327;42.622;23.316;2023-05-10T07:53:34;5.25;;;3.60;;
65636;SDS011;52327;42.622;23.316;2023-05-10T07:56:19;8.60;;;4.78;;
65636;SDS011;52327;42.622;23.316;2023-05-10T07:59:00;9.00;;;2.80;;
65636;SDS011;52327;42.622;23.316;2023-05-10T08:01:32;5.55;;;2.80;;
65636;SDS011;52327;42.622;23.316;2023-05-10T08:03:58;4.50;;;2.80;;
65636;SDS011;52327;42.622;23.316;2023-05-10T08:06:25;5.40;;;3.40;;
65636;SDS011;52327;42.622;23.316;2023-05-10T08:08:52;11.55;;;3.22;;
65636;SDS011;52327;42.622;23.316;2023-05-10T08:11:21;5.63;;;3.53;;
65636;SDS011;52327;42.622;23.316;2023-05-10T08:13:47;4.03;;;2.55;;
65636;SDS011;52327;42.622;23.316;2023-05-10T08:16:13;4.22;;;2.80;;
65636;SDS011;52327;42.622;23.316;2023-05-10T08:18:39;6.78;;;4.13;;
65636;SDS011;52327;42.622;23.316;2023-05-10T08:21:05;11.32;;;3.63;;
65636;SDS011;52327;42.622;23.316;2023-05-10T08:23:30;10.45;;;3.95;;
65636;SDS011;52327;42.622;23.316;2023-05-10T08:25:56;6.10;;;4.15;;
65636;SDS011;52327;42.622;23.316;2023-05-10T08:28:21;5.47;;;2.97;;
65636;SDS011;52327;42.622;23.316;2023-05-10T08:30:47;4.78;;;3.35;;
65636;SDS011;52327;42.622;23.316;2023-05-10T08:33:12;5.47;;;3.08;;
65636;SDS011;52327;42.622;23.316;2023-05-10T08:35:38;6.22;;;3.45;;
65636;SDS011;52327;42.622;23.316;2023-05-10T08:38:03;5.22;;;3.17;;
65636;SDS011;52327;42.622;23.316;2023-05-10T08:40:29;4.68;;;2.85;;
65636;SDS011;52327;42.622;23.316;2023-05-10T08:43:07;4.57;;;2.80;;
65636;SDS011;52327;42.622;23.316;2023-05-10T08:45:38;3.30;;;2.75;;
65636;SDS011;52327;42.622;23.316;2023-05-10T08:48:08;6.82;;;3.88;;
65636;SDS011;52327;42.622;23.316;2023-05-10T08:50:38;4.85;;;2.78;;
65636;SDS011;52327;42.622;23.316;2023-05-10T08:55:32;6.65;;;3.22;;
65636;SDS011;52327;42.622;23.316;2023-05-10T08:57:59;4.95;;;3.13;;
65636;SDS011;52327;42.622;23.316;2023-05-10T09:00:25;13.23;;;4.43;;
65636;SDS011;52327;42.622;23.316;2023-05-10T09:02:53;5.30;;;3.22;;
65636;SDS011;52327;42.622;23.316;2023-05-10T09:05:19;5.38;;;3.30;;
65636;SDS011;52327;42.622;23.316;2023-05-10T09:07:50;5.18;;;3.40;;
65636;SDS011;52327;42.622;23.316;2023-05-10T09:10:16;6.85;;;4.13;;
65636;SDS011;52327;42.622;23.316;2023-05-10T09:12:42;6.07;;;3.25;;
65636;SDS011;52327;42.622;23.316;2023-05-10T09:15:10;5.70;;;3.17;;
65636;SDS011;52327;42.622;23.316;2023-05-10T09:17:39;6.47;;;4.20;;
65636;SDS011;52327;42.622;23.316;2023-05-10T09:20:12;6.55;;;3.88;;
65636;SDS011;52327;42.622;23.316;2023-05-10T09:22:38;6.20;;;4.18;;
65636;SDS011;52327;42.622;23.316;2023-05-10T09:25:27;4.97;;;3.65;;
65636;SDS011;52327;42.622;23.316;2023-05-10T09:28:11;5.88;;;3.70;;
65636;SDS011;52327;42.622;23.316;2023-05-10T09:30:37;8.73;;;3.65;;
65636;SDS011;52327;42.622;23.316;2023-05-10T09:33:06;6.63;;;3.85;;
65636;SDS011;52327;42.622;23.316;2023-05-10T09:38:51;5.55;;;3.90;;
65636;SDS011;52327;42.622;23.316;2023-05-10T09:41:40;7.38;;;4.57;;
65636;SDS011;52327;42.622;23.316;2023-05-10T09:44:11;6.68;;;3.90;;
65636;SDS011;52327;42.622;23.316;2023-05-10T09:46:51;5.75;;;4.00;;
65636;SDS011;52327;42.622;23.316;2023-05-10T09:49:25;4.88;;;3.55;;
65636;SDS011;52327;42.622;23.316;2023-05-10T09:52:26;6.03;;;4.47;;
65636;SDS011;52327;42.622;23.316;2023-05-10T10:01:13;4.70;;;3.60;;
65636;SDS011;52327;42.622;23.316;2023-05-10T10:10:15;6.50;;;3.83;;
65636;SDS011;52327;42.622;23.316;2023-05-10T10:12:49;7.43;;;4.65;;
65636;SDS011;52327;42.622;23.316;2023-05-10T10:15:16;7.73;;;5.10;;
65636;SDS011;52327;42.622;23.316;2023-05-10T10:17:49;5.20;;;3.55;;
65636;SDS011;52327;42.622;23.316;2023-05-10T10:20:28;6.97;;;4.85;;
65636;SDS011;52327;42.622;23.316;2023-05-10T10:23:07;8.07;;;4.15;;
65636;SDS011;52327;42.622;23.316;2023-05-10T10:25:38;7.22;;;4.55;;
65636;SDS011;52327;42.622;23.316;2023-05-10T10:28:15;7.13;;;4.78;;
65636;SDS011;52327;42.622;23.316;2023-05-10T10:31:10;4.45;;;3.15;;
65636;SDS011;52327;42.622;23.316;2023-05-10T10:34:05;6.15;;;3.45;;
65636;SDS011;52327;42.622;23.316;2023-05-10T10:36:43;5.20;;;3.92;;
65636;SDS011;52327;42.622;23.316;2023-05-10T10:39:11;7.38;;;3.53;;
65636;SDS011;52327;42.622;23.316;2023-05-10T10:41:38;6.32;;;3.83;;
65636;SDS011;52327;42.622;23.316;2023-05-10T10:49:28;5.43;;;3.58;;
65636;SDS011;52327;42.622;23.316;2023-05-10T10:57:54;5.32;;;3.58;;
65636;SDS011;52327;42.622;23.316;2023-05-10T11:00:36;5.25;;;3.30;;
65636;SDS011;52327;42.622;23.316;2023-05-10T11:03:09;5.40;;;3.83;;
65636;SDS011;52327;42.622;23.316;2023-05-10T11:05:44;8.90;;;5.00;;
65636;SDS011;52327;42.622;23.316;2023-05-10T11:08:14;6.53;;;3.70;;
65636;SDS011;52327;42.622;23.316;2023-05-10T11:10:51;6.65;;;3.85;;
65636;SDS011;52327;42.622;23.316;2023-05-10T11:13:44;5.20;;;3.50;;
65636;SDS011;52327;42.622;23.316;2023-05-10T11:16:19;5.55;;;3.63;;
65636;SDS011;52327;42.622;23.316;2023-05-10T11:22:52;7.03;;;4.28;;
65636;SDS011;52327;42.622;23.316;2023-05-10T11:25:59;6.78;;;4.38;;
65636;SDS011;52327;42.622;23.316;2023-05-10T11:32:19;5.60;;;3.63;;
65636;SDS011;52327;42.622;23.316;2023-05-10T11:35:28;4.45;;;3.38;;
65636;SDS011;52327;42.622;23.316;2023-05-10T11:37:54;5.10;;;4.00;;
65636;SDS011;52327;42.622;23.316;2023-05-10T11:40:23;5.07;;;3.35;;
65636;SDS011;52327;42.622;23.316;2023-05-10T11:42:55;7.13;;;3.97;;
65636;SDS011;52327;42.622;23.316;2023-05-10T11:47:48;5.63;;;3.15;;
65636;SDS011;52327;42.622;23.316;2023-05-10T11:50:17;5.25;;;3.30;;
65636;SDS011;52327;42.622;23.316;2023-05-10T11:52:43;6.40;;;4.05;;
65636;SDS011;52327;42.622;23.316;2023-05-10T11:55:14;4.80;;;3.35;;
65636;SDS011;52327;42.622;23.316;2023-05-10T11:57:40;5.85;;;4.10;;
65636;SDS011;52327;42.622;23.316;2023-05-10T12:00:07;6.78;;;3.67;;
65636;SDS011;52327;42.622;23.316;2023-05-10T12:02:33;7.47;;;3.63;;
65636;SDS011;52327;42.622;23.316;2023-05-10T12:05:01;5.70;;;3.53;;
65636;SDS011;52327;42.622;23.316;2023-05-10T12:07:28;6.78;;;4.68;;
65636;SDS011;52327;42.622;23.316;2023-05-10T12:10:06;6.70;;;4.20;;
65636;SDS011;52327;42.622;23.316;2023-05-10T12:12:39;6.90;;;4.70;;
65636;SDS011;52327;42.622;23.316;2023-05-10T12:15:16;5.88;;;4.00;;
65636;SDS011;52327;42.622;23.316;2023-05-10T12:17:44;7.60;;;3.65;;
65636;SDS011;52327;42.622;23.316;2023-05-10T12:20:14;6.05;;;4.43;;
65636;SDS011;52327;42.622;23.316;2023-05-10T12:22:43;6.72;;;3.75;;
65636;SDS011;52327;42.622;23.316;2023-05-10T12:25:19;5.88;;;4.05;;
65636;SDS011;52327;42.622;23.316;2023-05-10T12:27:52;6.95;;;4.13;;
65636;SDS011;52327;42.622;23.316;2023-05-10T12:30:23;5.63;;;3.83;;
65636;SDS011;52327;42.622;23.316;2023-05-10T12:32:49;7.15;;;4.22;;
65636;SDS011;52327;42.622;23.316;2023-05-10T12:35:15;4.88;;;3.53;;
65636;SDS011;52327;42.622;23.316;2023-05-10T12:37:44;6.88;;;4.80;;
65636;SDS011;52327;42.622;23.316;2023-05-10T12:40:10;7.53;;;3.97;;
65636;SDS011;52327;42.622;23.316;2023-05-10T12:42:37;7.18;;;4.72;;
65636;SDS011;52327;42.622;23.316;2023-05-10T12:45:04;6.53;;;4.07;;
65636;SDS011;52327;42.622;23.316;2023-05-10T12:47:30;7.85;;;3.63;;
65636;SDS011;52327;42.622;23.316;2023-05-10T12:49:56;7.78;;;4.50;;
65636;SDS011;52327;42.622;23.316;2023-05-10T12:52:22;6.00;;;3.67;;
65636;SDS011;52327;42.622;23.316;2023-05-10T12:54:47;7.18;;;4.25;;
65636;SDS011;52327;42.622;23.316;2023-05-10T12:57:14;9.30;;;3.97;;
65636;SDS011;52327;42.622;23.316;2023-05-10T12:59:39;8.07;;;4.35;;
65636;SDS011;52327;42.622;23.316;2023-05-10T13:02:05;5.93;;;3.97;;
65636;SDS011;52327;42.622;23.316;2023-05-10T13:04:31;11.48;;;4.18;;
65636;SDS011;52327;42.622;23.316;2023-05-10T13:06:56;6.32;;;4.13;;
65636;SDS011;52327;42.622;23.316;2023-05-10T13:09:24;7.15;;;4.53;;
65636;SDS011;52327;42.622;23.316;2023-05-10T13:11:50;8.88;;;5.45;;
65636;SDS011;52327;42.622;23.316;2023-05-10T13:14:16;6.32;;;3.53;;
65636;SDS011;52327;42.622;23.316;2023-05-10T13:16:41;5.50;;;3.80;;
65636;SDS011;52327;42.622;23.316;2023-05-10T13:19:06;5.85;;;3.67;;
65636;SDS011;52327;42.622;23.316;2023-05-10T13:21:32;7.75;;;4.60;;
65636;SDS011;52327;42.622;23.316;2023-05-10T13:23:57;5.90;;;4.00;;
65636;SDS011;52327;42.622;23.316;2023-05-10T13:26:23;6.70;;;3.85;;
65636;SDS011;52327;42.622;23.316;2023-05-10T13:28:48;8.10;;;4.20;;
65636;SDS011;52327;42.622;23.316;2023-05-10T13:31:14;9.10;;;4.28;;
65636;SDS011;52327;42.622;23.316;2023-05-10T13:33:41;5.97;;;3.60;;
65636;SDS011;52327;42.622;23.316;2023-05-10T13:36:06;6.93;;;4.22;;
65636;SDS011;52327;42.622;23.316;2023-05-10T13:38:32;6.07;;;3.45;;
65636;SDS011;52327;42.622;23.316;2023-05-10T13:40:57;5.32;;;3.60;;
65636;SDS011;52327;42.622;23.316;2023-05-10T13:43:23;8.02;;;4.38;;
65636;SDS011;52327;42.622;23.316;2023-05-10T13:45:48;8.00;;;4.75;;
65636;SDS011;52327;42.622;23.316;2023-05-10T13:48:14;6.43;;;3.88;;
65636;SDS011;52327;42.622;23.316;2023-05-10T13:50:40;6.93;;;4.13;;
65636;SDS011;52327;42.622;23.316;2023-05-10T13:53:05;7.72;;;4.18;;
65636;SDS011;52327;42.622;23.316;2023-05-10T13:58:52;7.20;;;4.32;;
65636;SDS011;52327;42.622;23.316;2023-05-10T14:01:18;5.15;;;3.22;;
65636;SDS011;52327;42.622;23.316;2023-05-10T14:03:43;4.97;;;3.22;;
65636;SDS011;52327;42.622;23.316;2023-05-10T14:06:08;4.72;;;3.42;;
65636;SDS011;52327;42.622;23.316;2023-05-10T14:08:35;5.60;;;3.45;;
65636;SDS011;52327;42.622;23.316;2023-05-10T14:11:00;5.13;;;3.20;;
65636;SDS011;52327;42.622;23.316;2023-05-10T14:13:26;9.07;;;3.70;;
65636;SDS011;52327;42.622;23.316;2023-05-10T14:15:53;8.45;;;4.43;;
65636;SDS011;52327;42.622;23.316;2023-05-10T14:18:18;4.20;;;3.13;;
65636;SDS011;52327;42.622;23.316;2023-05-10T14:20:44;5.47;;;3.53;;
65636;SDS011;52327;42.622;23.316;2023-05-10T14:23:10;6.40;;;3.65;;
65636;SDS011;52327;42.622;23.316;2023-05-10T14:25:35;8.45;;;4.55;;
65636;SDS011;52327;42.622;23.316;2023-05-10T14:28:01;7.88;;;4.50;;
65636;SDS011;52327;42.622;23.316;2023-05-10T14:30:26;5.88;;;3.85;;
65636;SDS011;52327;42.622;23.316;2023-05-10T14:32:51;7.28;;;3.80;;
65636;SDS011;52327;42.622;23.316;2023-05-10T14:35:18;8.55;;;4.00;;
65636;SDS011;52327;42.622;23.316;2023-05-10T14:37:44;6.53;;;3.95;;
65636;SDS011;52327;42.622;23.316;2023-05-10T14:40:10;7.47;;;4.85;;
65636;SDS011;52327;42.622;23.316;2023-05-10T14:42:35;8.23;;;3.92;;
65636;SDS011;52327;42.622;23.316;2023-05-10T14:45:01;5.88;;;3.95;;
65636;SDS011;52327;42.622;23.316;2023-05-10T14:47:26;6.65;;;4.15;;
65636;SDS011;52327;42.622;23.316;2023-05-10T14:49:52;6.03;;;3.85;;
65636;SDS011;52327;42.622;23.316;2023-05-10T14:55:38;6.40;;;4.40;;
65636;SDS011;52327;42.622;23.316;2023-05-10T14:58:04;6.95;;;4.57;;
65636;SDS011;52327;42.622;23.316;2023-05-10T15:00:30;8.02;;;4.82;;
65636;SDS011;52327;42.622;23.316;2023-05-10T15:02:56;7.32;;;4.07;;
65636;SDS011;52327;42.622;23.316;2023-05-10T15:05:22;7.60;;;4.65;;
65636;SDS011;52327;42.622;23.316;2023-05-10T15:07:47;6.90;;;3.58;;
65636;SDS011;52327;42.622;23.316;2023-05-10T15:10:13;6.07;;;3.90;;
65636;SDS011;52327;42.622;23.316;2023-05-10T15:12:40;6.25;;;3.90;;
65636;SDS011;52327;42.622;23.316;2023-05-10T15:15:05;4.57;;;3.20;;
65636;SDS011;52327;42.622;23.316;2023-05-10T15:17:31;6.13;;;3.78;;
65636;SDS011;52327;42.622;23.316;2023-05-10T15:19:57;3.65;;;2.35;;
65636;SDS011;52327;42.622;23.316;2023-05-10T15:22:22;6.15;;;3.88;;
65636;SDS011;52327;42.622;23.316;2023-05-10T15:24:48;6.43;;;3.92;;
65636;SDS011;52327;42.622;23.316;2023-05-10T15:27:13;6.10;;;3.80;;
65636;SDS011;52327;42.622;23.316;2023-05-10T15:29:38;8.00;;;3.88;;
65636;SDS011;52327;42.622;23.316;2023-05-10T15:32:04;4.80;;;3.35;;
65636;SDS011;52327;42.622;23.316;2023-05-10T15:34:29;5.90;;;3.80;;
65636;SDS011;52327;42.622;23.316;2023-05-10T15:36:55;5.22;;;3.30;;
65636;SDS011;52327;42.622;23.316;2023-05-10T15:39:20;7.38;;;3.60;;
65636;SDS011;52327;42.622;23.316;2023-05-10T15:41:46;6.57;;;3.42;;
65636;SDS011;52327;42.622;23.316;2023-05-10T15:44:12;5.05;;;3.63;;
65636;SDS011;52327;42.622;23.316;2023-05-10T15:46:37;5.75;;;3.22;;
65636;SDS011;52327;42.622;23.316;2023-05-10T15:49:03;6.95;;;4.55;;
65636;SDS011;52327;42.622;23.316;2023-05-10T15:51:28;5.97;;;4.05;;
65636;SDS011;52327;42.622;23.316;2023-05-10T15:53:54;5.95;;;3.80;;